createdAt,value
2022-12-15T00:03:10.934Z,7.02
2022-12-15T00:06:33.556Z,7.09
2022-12-15T00:09:54.853Z,6.60
2022-12-15T00:13:16.029Z,6.75
2022-12-15T00:16:36.786Z,6.68
2022-12-15T00:19:57.849Z,6.77
2022-12-15T00:23:27.964Z,6.31
2022-12-15T00:26:49.417Z,6.79
2022-12-15T00:30:10.471Z,6.86
2022-12-15T00:33:31.609Z,6.93
2022-12-15T00:36:52.620Z,7.04
2022-12-15T00:40:00.206Z,6.91
2022-12-15T00:43:04.241Z,6.72
2022-12-15T00:46:25.684Z,6.54
2022-12-15T00:49:48.222Z,6.95
2022-12-15T00:53:09.277Z,6.89
2022-12-15T00:56:32.067Z,7.12
2022-12-15T00:59:53.227Z,6.97
2022-12-15T01:03:14.423Z,6.91
2022-12-15T01:06:38.656Z,7.01
2022-12-15T01:09:59.735Z,7.15
2022-12-15T01:13:23.249Z,6.52
2022-12-15T01:16:44.307Z,6.78
2022-12-15T01:20:05.271Z,6.87
2022-12-15T01:23:09.016Z,7.11
2022-12-15T01:26:12.790Z,6.94
2022-12-15T01:29:17.989Z,6.90
2022-12-15T01:32:21.750Z,6.94
2022-12-15T01:35:27.017Z,6.97
2022-12-15T01:38:30.967Z,7.02
2022-12-15T01:41:33.451Z,7.00
2022-12-15T01:44:39.651Z,6.83
2022-12-15T01:47:44.019Z,6.81
2022-12-15T01:50:55.019Z,6.33
2022-12-15T01:54:04.551Z,6.48
2022-12-15T01:57:12.166Z,6.48
2022-12-15T02:00:17.729Z,6.54
2022-12-15T02:03:21.872Z,6.52
2022-12-15T02:06:27.933Z,6.39
2022-12-15T02:09:32.381Z,6.23
2022-12-15T02:12:41.797Z,6.18
2022-12-15T02:15:52.758Z,6.08
2022-12-15T02:19:04.689Z,5.95
2022-12-15T02:22:24.596Z,6.08
2022-12-15T02:25:50.753Z,6.13
2022-12-15T02:29:04.197Z,6.04
2022-12-15T02:32:13.714Z,6.04
2022-12-15T02:35:22.029Z,5.99
2022-12-15T02:38:33.905Z,5.88
2022-12-15T02:41:39.840Z,5.72
2022-12-15T02:44:48.729Z,5.83
2022-12-15T02:48:05.390Z,5.80
2022-12-15T02:51:27.630Z,5.39
2022-12-15T02:54:42.679Z,5.69
2022-12-15T02:57:54.676Z,5.42
2022-12-15T03:01:03.415Z,5.58
2022-12-15T03:04:12.181Z,5.61
2022-12-15T03:07:16.103Z,5.43
2022-12-15T03:10:21.699Z,5.19
2022-12-15T03:13:25.596Z,5.47
2022-12-15T03:16:29.456Z,5.33
2022-12-15T03:19:34.651Z,5.34
2022-12-15T03:22:39.436Z,5.20
2022-12-15T03:25:43.177Z,5.39
2022-12-15T03:28:46.870Z,5.54
2022-12-15T03:31:50.577Z,5.53
2022-12-15T03:34:55.740Z,5.56
2022-12-15T03:37:59.518Z,5.50
2022-12-15T03:41:03.265Z,5.63
2022-12-15T03:44:07.178Z,5.74
2022-12-15T03:47:10.938Z,5.63
2022-12-15T03:50:18.100Z,5.73
2022-12-15T03:53:21.900Z,5.62
2022-12-15T03:56:25.502Z,5.77
2022-12-15T03:59:29.269Z,5.88
2022-12-15T04:02:33.185Z,6.08
2022-12-15T04:05:39.131Z,5.97
2022-12-15T04:08:42.887Z,5.90
2022-12-15T04:11:46.677Z,6.05
2022-12-15T04:14:50.251Z,6.23
2022-12-15T04:17:54.077Z,6.06
2022-12-15T04:20:59.296Z,6.12
2022-12-15T04:24:20.496Z,5.83
2022-12-15T04:27:41.686Z,6.00
2022-12-15T04:31:06.540Z,6.31
2022-12-15T04:34:32.781Z,6.41
2022-12-15T04:37:55.475Z,6.30
2022-12-15T04:41:16.686Z,6.52
2022-12-15T04:44:37.821Z,6.20
2022-12-15T04:47:59.338Z,6.12
2022-12-15T04:51:20.288Z,6.07
2022-12-15T04:54:42.464Z,6.10
2022-12-15T04:58:03.216Z,6.19
2022-12-15T05:01:24.767Z,6.39
2022-12-15T05:04:45.877Z,6.38
2022-12-15T05:08:06.931Z,6.36
2022-12-15T05:11:29.495Z,6.41
2022-12-15T05:14:50.681Z,6.43
2022-12-15T05:18:11.820Z,6.44
2022-12-15T05:21:32.917Z,6.51
2022-12-15T05:24:53.655Z,6.40
2022-12-15T05:28:15.786Z,6.36
2022-12-15T05:31:36.896Z,6.17
2022-12-15T05:34:40.702Z,6.45
2022-12-15T05:37:44.524Z,6.38
2022-12-15T05:40:48.136Z,6.20
2022-12-15T05:43:53.376Z,6.28
2022-12-15T05:46:57.140Z,6.36
2022-12-15T05:50:01.089Z,6.01
2022-12-15T05:53:04.796Z,6.25
2022-12-15T05:56:10.626Z,6.23
2022-12-15T05:59:16.799Z,6.33
2022-12-15T06:02:20.653Z,6.42
2022-12-15T06:05:24.618Z,6.17
2022-12-15T06:08:28.670Z,6.30
2022-12-15T06:11:32.407Z,6.32
2022-12-15T06:14:37.848Z,6.27
2022-12-15T06:17:41.637Z,6.30
2022-12-15T06:20:45.470Z,6.08
2022-12-15T06:23:54.476Z,6.29
2022-12-15T06:26:58.177Z,6.41
2022-12-15T06:30:03.353Z,6.53
2022-12-15T06:33:07.617Z,6.31
2022-12-15T06:36:13.827Z,6.36
2022-12-15T06:39:18.126Z,6.55
2022-12-15T06:42:22.046Z,6.60
2022-12-15T06:45:27.406Z,6.66
2022-12-15T06:48:31.856Z,6.39
2022-12-15T06:51:35.573Z,6.64
2022-12-15T06:54:39.230Z,6.69
2022-12-15T06:57:43.026Z,6.80
2022-12-15T07:00:48.390Z,6.62
2022-12-15T07:03:54.664Z,6.77
2022-12-15T07:06:58.636Z,6.75
2022-12-15T07:10:02.436Z,6.56
2022-12-15T07:13:06.206Z,6.71
2022-12-15T07:16:12.990Z,6.66
2022-12-15T07:19:16.727Z,6.87
2022-12-15T07:22:21.215Z,7.15
2022-12-15T07:25:25.176Z,7.39
2022-12-15T07:28:29.112Z,7.92
2022-12-15T07:31:34.496Z,8.58
2022-12-15T07:34:38.310Z,9.18
2022-12-15T07:37:42.097Z,9.14
2022-12-15T07:40:45.899Z,9.34
2022-12-15T07:43:49.796Z,9.63
2022-12-15T07:46:55.084Z,9.69
2022-12-15T07:49:59.111Z,9.94
2022-12-15T07:53:02.838Z,10.08
2022-12-15T07:56:09.550Z,9.65
2022-12-15T07:59:14.320Z,10.40
2022-12-15T08:02:20.193Z,11.02
2022-12-15T08:05:24.132Z,11.26
2022-12-15T08:08:27.856Z,11.26
2022-12-15T08:11:35.311Z,11.48
2022-12-15T08:14:39.126Z,11.59
2022-12-15T08:17:46.789Z,11.92
2022-12-15T08:20:51.152Z,12.08
2022-12-15T08:23:55.317Z,12.34
2022-12-15T08:27:00.307Z,12.44
2022-12-15T08:30:04.238Z,12.66
2022-12-15T08:33:09.552Z,13.04
2022-12-15T08:36:15.268Z,13.22
2022-12-15T08:39:19.049Z,13.37
2022-12-15T08:42:22.787Z,13.45
2022-12-15T08:45:26.508Z,13.20
2022-12-15T08:48:31.652Z,13.55
2022-12-15T08:51:35.741Z,13.57
2022-12-15T08:54:39.331Z,13.89
2022-12-15T08:57:43.191Z,13.94
2022-12-15T09:00:47.528Z,13.79
2022-12-15T09:03:54.145Z,13.95
2022-12-15T09:06:58.369Z,14.09
2022-12-15T09:10:02.278Z,13.84
2022-12-15T09:13:06.044Z,13.55
2022-12-15T09:16:14.797Z,13.78
2022-12-15T09:19:20.521Z,13.97
2022-12-15T09:22:24.381Z,13.53
2022-12-15T09:25:28.082Z,14.03
2022-12-15T09:28:32.307Z,14.33
2022-12-15T09:31:39.317Z,14.65
2022-12-15T09:34:44.561Z,14.81
2022-12-15T09:37:51.770Z,14.84
2022-12-15T09:40:56.253Z,14.99
2022-12-15T09:44:04.042Z,14.72
2022-12-15T09:47:18.655Z,14.64
2022-12-15T09:50:29.571Z,14.96
2022-12-15T09:53:57.720Z,15.05
2022-12-15T09:56:59.639Z,15.07
2022-12-15T10:00:21.459Z,15.10
2022-12-15T10:03:34.953Z,15.32
2022-12-15T10:06:50.654Z,14.82
2022-12-15T10:09:54.813Z,14.93
2022-12-15T10:13:04.511Z,15.28
2022-12-15T10:16:19.939Z,15.30
2022-12-15T10:19:33.101Z,15.50
2022-12-15T10:22:39.286Z,15.65
2022-12-15T10:25:48.559Z,15.79
2022-12-15T10:29:07.962Z,15.60
2022-12-15T10:32:20.088Z,14.85
2022-12-15T10:35:25.663Z,14.88
2022-12-15T10:38:38.064Z,14.81
2022-12-15T10:41:41.851Z,15.20
2022-12-15T10:44:50.616Z,15.14
2022-12-15T10:48:02.748Z,15.64
2022-12-15T10:51:16.922Z,15.75
2022-12-15T10:54:23.287Z,15.51
2022-12-15T10:57:30.629Z,15.59
2022-12-15T11:00:35.576Z,15.84
2022-12-15T11:03:40.925Z,15.85
2022-12-15T11:06:45.229Z,16.11
2022-12-15T11:09:59.902Z,16.09
2022-12-15T11:13:16.067Z,16.22
2022-12-15T11:16:21.007Z,15.98
2022-12-15T11:19:37.620Z,16.02
2022-12-15T11:22:45.981Z,16.17
2022-12-15T11:26:08.489Z,16.33
2022-12-15T11:29:23.068Z,16.57
2022-12-15T11:32:30.151Z,16.60
2022-12-15T11:35:48.990Z,16.04
2022-12-15T11:39:01.439Z,16.17
2022-12-15T11:42:13.481Z,16.22
2022-12-15T11:45:22.490Z,16.26
2022-12-15T11:48:36.652Z,16.18
2022-12-15T11:51:45.909Z,16.14
2022-12-15T11:54:57.175Z,16.07
2022-12-15T11:58:20.680Z,15.90
2022-12-15T12:01:51.622Z,15.71
2022-12-15T12:05:15.720Z,15.80
2022-12-15T12:08:36.767Z,15.42
2022-12-15T12:11:46.307Z,15.29
2022-12-15T12:15:09.527Z,15.81
2022-12-15T12:18:19.936Z,15.54
2022-12-15T12:21:29.081Z,15.73
2022-12-15T12:24:38.910Z,15.78
2022-12-15T12:27:50.483Z,15.77
2022-12-15T12:30:59.908Z,15.91
2022-12-15T12:34:10.761Z,15.82
2022-12-15T12:37:23.170Z,15.72
2022-12-15T12:40:32.899Z,15.74
2022-12-15T12:43:41.957Z,15.61
2022-12-15T12:46:51.571Z,15.47
2022-12-15T12:49:59.212Z,15.62
2022-12-15T12:53:04.837Z,15.64
2022-12-15T12:56:08.962Z,15.51
2022-12-15T12:59:42.328Z,15.32
2022-12-15T13:02:55.754Z,15.43
2022-12-15T13:06:00.097Z,15.43
2022-12-15T13:09:23.871Z,15.44
2022-12-15T13:12:51.986Z,15.46
2022-12-15T13:16:06.450Z,15.23
2022-12-15T13:19:11.747Z,15.12
2022-12-15T13:22:26.477Z,14.87
2022-12-15T13:25:42.210Z,14.77
2022-12-15T13:28:51.544Z,14.63
2022-12-15T13:31:55.599Z,14.58
2022-12-15T13:35:06.521Z,14.35
2022-12-15T13:38:19.109Z,14.31
2022-12-15T13:41:26.442Z,14.30
2022-12-15T13:44:33.871Z,14.28
2022-12-15T13:47:38.328Z,14.38
2022-12-15T13:50:51.445Z,14.23
2022-12-15T13:54:00.421Z,14.20
2022-12-15T13:57:06.698Z,13.99
2022-12-15T14:00:18.858Z,13.83
2022-12-15T14:03:23.206Z,13.59
2022-12-15T14:06:31.390Z,13.25
2022-12-15T14:09:40.227Z,13.14
2022-12-15T14:12:44.297Z,13.05
2022-12-15T14:15:52.567Z,13.10
2022-12-15T14:19:06.876Z,13.07
2022-12-15T14:22:30.730Z,12.93
2022-12-15T14:25:34.777Z,12.76
2022-12-15T14:28:40.703Z,12.61
2022-12-15T14:31:48.473Z,12.60
2022-12-15T14:34:52.471Z,12.56
2022-12-15T14:38:00.111Z,12.49
2022-12-15T14:41:06.061Z,12.55
2022-12-15T14:44:31.477Z,12.49
2022-12-15T14:47:42.282Z,12.38
2022-12-15T14:50:49.338Z,12.50
2022-12-15T14:53:56.992Z,12.47
2022-12-15T14:57:05.672Z,12.46
2022-12-15T15:00:26.177Z,12.48
2022-12-15T15:03:38.585Z,12.33
2022-12-15T15:06:44.384Z,12.20
2022-12-15T15:09:54.518Z,12.20
2022-12-15T15:12:58.428Z,12.18
2022-12-15T15:16:06.712Z,12.14
2022-12-15T15:19:21.207Z,12.12
2022-12-15T15:22:41.889Z,12.08
2022-12-15T15:25:54.082Z,11.95
2022-12-15T15:28:58.125Z,11.97
2022-12-15T15:32:07.962Z,12.05
2022-12-15T15:35:11.802Z,11.92
2022-12-15T15:38:23.297Z,11.96
2022-12-15T15:41:32.075Z,11.92
2022-12-15T15:44:35.783Z,11.90
2022-12-15T15:47:39.722Z,11.94
2022-12-15T15:50:44.741Z,11.94
2022-12-15T15:53:49.031Z,11.85
2022-12-15T15:56:54.228Z,11.77
2022-12-15T15:59:59.903Z,11.77
2022-12-15T16:03:03.827Z,11.79
2022-12-15T16:06:16.091Z,11.79
2022-12-15T16:09:20.000Z,11.68
2022-12-15T16:12:29.853Z,11.73
2022-12-15T16:15:33.735Z,11.64
2022-12-15T16:18:37.493Z,11.78
2022-12-15T16:21:42.248Z,11.66
2022-12-15T16:24:46.264Z,11.62
2022-12-15T16:27:51.534Z,11.44
2022-12-15T16:30:55.984Z,11.42
2022-12-15T16:34:00.548Z,11.53
2022-12-15T16:37:04.820Z,11.56
2022-12-15T16:40:17.207Z,11.52
2022-12-15T16:43:23.929Z,11.53
2022-12-15T16:46:27.765Z,11.52
2022-12-15T16:49:33.971Z,11.46
2022-12-15T16:52:44.773Z,11.46
2022-12-15T16:55:50.148Z,11.34
2022-12-15T16:59:15.449Z,11.39
2022-12-15T17:02:27.260Z,11.36
2022-12-15T17:05:34.943Z,11.41
2022-12-15T17:08:41.609Z,11.35
2022-12-15T17:11:45.335Z,11.13
2022-12-15T17:14:50.627Z,11.16
2022-12-15T17:17:56.194Z,11.13
2022-12-15T17:21:04.688Z,11.17
2022-12-15T17:24:13.661Z,11.13
2022-12-15T17:27:27.953Z,11.23
2022-12-15T17:30:33.214Z,11.06
2022-12-15T17:33:36.996Z,10.99
2022-12-15T17:36:41.001Z,11.01
2022-12-15T17:39:51.262Z,10.97
2022-12-15T17:42:55.408Z,10.96
2022-12-15T17:46:00.769Z,10.93
2022-12-15T17:49:04.848Z,10.86
2022-12-15T17:52:18.026Z,11.00
2022-12-15T17:55:34.614Z,11.07
2022-12-15T17:58:39.760Z,10.97
2022-12-15T18:01:45.157Z,10.93
2022-12-15T18:04:48.954Z,10.92
2022-12-15T18:07:56.502Z,10.80
2022-12-15T18:11:00.478Z,10.81
2022-12-15T18:14:05.018Z,10.92
2022-12-15T18:17:10.262Z,10.95
2022-12-15T18:20:14.034Z,10.79
2022-12-15T18:23:20.126Z,10.83
2022-12-15T18:26:24.038Z,10.82
2022-12-15T18:29:27.809Z,10.86
2022-12-15T18:32:38.440Z,10.89
2022-12-15T18:35:43.761Z,10.90
2022-12-15T18:38:47.533Z,10.95
2022-12-15T18:41:52.128Z,11.03
2022-12-15T18:44:56.911Z,10.88
2022-12-15T18:48:02.119Z,10.94
2022-12-15T18:51:16.491Z,10.83
2022-12-15T18:54:22.527Z,10.94
2022-12-15T18:57:30.877Z,10.94
2022-12-15T19:00:35.191Z,10.79
2022-12-15T19:03:41.311Z,10.67
2022-12-15T19:06:46.418Z,10.77
2022-12-15T19:09:51.371Z,10.59
2022-12-15T19:12:58.533Z,10.68
2022-12-15T19:16:06.122Z,10.63
2022-12-15T19:19:31.186Z,10.43
2022-12-15T19:22:35.121Z,10.18
2022-12-15T19:25:39.982Z,10.37
2022-12-15T19:28:47.912Z,10.52
2022-12-15T19:31:52.292Z,10.45
2022-12-15T19:34:57.596Z,10.53
2022-12-15T19:38:03.190Z,10.43
2022-12-15T19:41:07.081Z,10.51
2022-12-15T19:44:16.020Z,10.40
2022-12-15T19:47:19.908Z,10.45
2022-12-15T19:50:27.468Z,10.31
2022-12-15T19:53:32.616Z,10.23
2022-12-15T19:56:36.944Z,10.33
2022-12-15T19:59:40.660Z,10.44
2022-12-15T20:02:44.869Z,10.28
2022-12-15T20:05:52.219Z,10.43
2022-12-15T20:08:57.565Z,10.39
2022-12-15T20:12:01.655Z,10.44
2022-12-15T20:15:19.346Z,10.30
2022-12-15T20:18:23.649Z,10.30
2022-12-15T20:21:32.835Z,10.32
2022-12-15T20:24:37.175Z,10.31
2022-12-15T20:27:41.048Z,10.34
2022-12-15T20:30:45.639Z,10.26
2022-12-15T20:33:49.979Z,10.19
2022-12-15T20:36:55.199Z,10.21
2022-12-15T20:39:58.942Z,10.19
2022-12-15T20:43:02.850Z,10.13
2022-12-15T20:46:08.749Z,10.16
2022-12-15T20:49:17.920Z,10.21
2022-12-15T20:52:26.456Z,10.31
2022-12-15T20:55:30.601Z,10.12
2022-12-15T20:58:40.421Z,10.12
2022-12-15T21:01:45.583Z,10.13
2022-12-15T21:04:49.970Z,10.18
2022-12-15T21:07:55.225Z,10.28
2022-12-15T21:11:02.925Z,10.28
2022-12-15T21:14:15.595Z,10.34
2022-12-15T21:17:21.249Z,10.21
2022-12-15T21:20:25.088Z,10.22
2022-12-15T21:23:32.465Z,10.19
2022-12-15T21:26:36.398Z,10.09
2022-12-15T21:29:40.048Z,10.06
2022-12-15T21:32:43.940Z,10.17
2022-12-15T21:35:49.164Z,10.09
2022-12-15T21:38:54.916Z,10.09
2022-12-15T21:42:01.609Z,9.17
2022-12-15T21:45:14.139Z,9.76
2022-12-15T21:48:35.635Z,9.68
2022-12-15T21:51:41.040Z,9.74
2022-12-15T21:54:46.249Z,9.77
2022-12-15T21:57:50.029Z,9.80
2022-12-15T22:00:55.699Z,9.71
2022-12-15T22:04:03.109Z,9.86
2022-12-15T22:07:08.177Z,9.81
2022-12-15T22:10:13.628Z,9.79
2022-12-15T22:13:20.857Z,9.68
2022-12-15T22:16:25.323Z,9.86
2022-12-15T22:19:29.416Z,9.81
2022-12-15T22:22:33.366Z,9.78
2022-12-15T22:25:38.668Z,9.69
2022-12-15T22:28:42.527Z,9.58
2022-12-15T22:31:46.501Z,9.33
2022-12-15T22:34:50.495Z,9.54
2022-12-15T22:37:56.548Z,9.45
2022-12-15T22:41:02.716Z,9.47
2022-12-15T22:44:06.776Z,9.59
2022-12-15T22:47:12.429Z,9.54
2022-12-15T22:50:19.215Z,9.39
2022-12-15T22:53:29.118Z,9.34
2022-12-15T22:56:40.961Z,9.45
2022-12-15T22:59:50.899Z,9.52
2022-12-15T23:02:55.533Z,9.47
2022-12-15T23:06:00.158Z,9.57
2022-12-15T23:09:03.856Z,9.53
2022-12-15T23:12:09.513Z,9.48
2022-12-15T23:15:30.279Z,9.62
2022-12-15T23:18:34.040Z,9.65
2022-12-15T23:21:38.179Z,9.61
2022-12-15T23:24:42.135Z,9.51
2022-12-15T23:27:47.450Z,9.53
2022-12-15T23:30:53.228Z,9.52
2022-12-15T23:33:57.125Z,9.58
2022-12-15T23:37:01.142Z,9.59
2022-12-15T23:40:05.930Z,9.41
2022-12-15T23:43:11.071Z,9.40
2022-12-15T23:46:15.261Z,9.46
2022-12-15T23:49:19.078Z,9.46
2022-12-15T23:52:22.856Z,9.47
2022-12-15T23:55:26.623Z,9.56
2022-12-15T23:58:31.800Z,9.45
